createdAt,value
2023-02-03T00:04:52.880Z,99424.58
2023-02-03T00:09:56.976Z,99427.98
2023-02-03T00:15:05.810Z,99431.94
2023-02-03T00:20:08.926Z,99441.02
2023-02-03T00:25:12.031Z,99448.81
2023-02-03T00:30:34.935Z,99454.88
2023-02-03T00:35:40.560Z,99457.30
2023-02-03T00:40:42.765Z,99461.73
2023-02-03T00:45:45.193Z,99458.91
2023-02-03T00:50:50.425Z,99459.77
2023-02-03T00:55:52.967Z,99455.90
2023-02-03T01:01:00.028Z,99455.09
2023-02-03T01:06:14.775Z,99453.23
2023-02-03T01:11:25.573Z,99446.48
2023-02-03T01:16:31.483Z,99450.73
2023-02-03T01:21:36.246Z,99443.46
2023-02-03T01:26:41.009Z,99440.02
2023-02-03T01:31:43.180Z,99441.17
2023-02-03T01:36:47.274Z,99448.19
2023-02-03T01:41:49.201Z,99448.52
2023-02-03T01:46:51.834Z,99445.55
2023-02-03T01:51:56.599Z,99440.11
2023-02-03T01:57:04.850Z,99439.34
2023-02-03T02:02:08.465Z,99441.38
2023-02-03T02:07:12.123Z,99431.41
2023-02-03T02:12:16.874Z,99426.12
2023-02-03T02:17:55.516Z,99411.42
2023-02-03T02:23:19.570Z,99402.41
2023-02-03T02:28:52.456Z,99399.34
2023-02-03T02:34:23.512Z,99394.94
2023-02-03T02:39:50.288Z,99380.61
2023-02-03T02:45:05.341Z,99363.91
2023-02-03T02:50:16.793Z,99356.99
2023-02-03T02:55:24.760Z,99354.04
2023-02-03T03:00:31.424Z,99357.08
2023-02-03T03:05:34.575Z,99356.74
2023-02-03T03:10:41.751Z,99371.04
2023-02-03T03:15:45.993Z,99378.48
2023-02-03T03:20:51.752Z,99381.58
2023-02-03T03:26:02.451Z,99380.33
2023-02-03T03:31:05.481Z,99360.23
2023-02-03T03:36:26.198Z,99354.59
2023-02-03T03:41:55.778Z,99335.21
2023-02-03T03:47:29.290Z,99323.42
2023-02-03T03:52:36.124Z,99314.66
2023-02-03T03:57:56.814Z,99307.54
2023-02-03T04:03:05.184Z,99303.73
2023-02-03T04:08:07.779Z,99302.42
2023-02-03T04:13:11.343Z,99298.10
2023-02-03T04:18:15.552Z,99284.93
2023-02-03T04:23:18.140Z,99282.73
2023-02-03T04:28:20.177Z,99276.58
2023-02-03T04:33:22.501Z,99269.73
2023-02-03T04:38:26.386Z,99262.31
2023-02-03T04:43:29.852Z,99255.77
2023-02-03T04:48:33.566Z,99252.30
2023-02-03T04:53:36.012Z,99241.52
2023-02-03T04:58:39.211Z,99239.05
2023-02-03T05:03:41.361Z,99234.66
2023-02-03T05:08:43.973Z,99226.39
2023-02-03T05:13:46.963Z,99205.06
2023-02-03T05:18:49.449Z,99188.97
2023-02-03T05:23:54.585Z,99180.97
2023-02-03T05:28:57.706Z,99176.27
2023-02-03T05:34:00.116Z,99168.52
2023-02-03T05:39:02.092Z,99159.15
2023-02-03T05:44:06.680Z,99152.88
2023-02-03T05:49:09.512Z,99144.67
2023-02-03T05:54:11.591Z,99131.16
2023-02-03T05:59:13.861Z,99132.89
2023-02-03T06:04:16.927Z,99131.95
2023-02-03T06:09:18.866Z,99126.77
2023-02-03T06:14:21.143Z,99113.44
2023-02-03T06:19:24.331Z,99114.08
2023-02-03T06:24:27.123Z,99102.25
2023-02-03T06:29:29.042Z,99102.66
2023-02-03T06:34:32.924Z,99095.77
2023-02-03T06:39:35.618Z,99088.34
2023-02-03T06:44:38.139Z,99080.45
2023-02-03T06:49:43.185Z,99069.14
2023-02-03T06:54:45.622Z,99061.08
2023-02-03T06:59:47.786Z,99053.48
2023-02-03T07:04:52.833Z,99041.64
2023-02-03T07:09:57.500Z,99035.50
2023-02-03T07:14:59.430Z,99024.46
2023-02-03T07:20:02.066Z,99019.45
2023-02-03T07:25:07.049Z,99013.65
2023-02-03T07:30:13.075Z,99009.96
2023-02-03T07:35:16.045Z,99009.30
2023-02-03T07:40:19.008Z,99013.62
2023-02-03T07:45:22.263Z,99010.02
2023-02-03T07:50:24.355Z,99002.91
2023-02-03T07:55:26.665Z,98991.42
2023-02-03T08:00:29.281Z,98987.40
2023-02-03T08:05:31.752Z,98977.08
2023-02-03T08:10:33.824Z,98977.57
2023-02-03T08:15:36.357Z,98968.23
2023-02-03T08:20:40.968Z,98959.06
2023-02-03T08:25:43.078Z,98951.81
2023-02-03T08:30:44.987Z,98939.64
2023-02-03T08:35:51.255Z,98920.98
2023-02-03T08:40:53.321Z,98906.45
2023-02-03T08:45:55.157Z,98899.05
2023-02-03T08:51:01.350Z,98892.52
2023-02-03T08:56:08.456Z,98878.39
2023-02-03T09:01:13.844Z,98863.95
2023-02-03T09:06:17.231Z,98846.13
2023-02-03T09:11:31.454Z,98842.32
2023-02-03T09:16:35.833Z,98825.46
2023-02-03T09:21:40.878Z,98807.66
2023-02-03T09:26:56.403Z,98795.63
2023-02-03T09:32:07.004Z,98777.05
2023-02-03T09:37:12.248Z,98756.89
2023-02-03T09:43:10.443Z,98740.45
2023-02-03T09:48:25.176Z,98725.11
2023-02-03T09:53:48.710Z,98701.19
2023-02-03T09:58:51.099Z,98678.44
2023-02-03T10:04:23.384Z,98659.37
2023-02-03T10:09:44.311Z,98649.45
2023-02-03T10:15:32.355Z,98639.00
2023-02-03T10:20:58.961Z,98626.32
2023-02-03T10:26:27.270Z,98605.24
2023-02-03T10:31:36.830Z,98585.09
2023-02-03T10:37:23.870Z,98564.39
2023-02-03T10:42:46.391Z,98541.10
2023-02-03T10:47:53.827Z,98535.90
2023-02-03T10:53:40.193Z,98524.77
2023-02-03T10:58:54.430Z,98510.02
2023-02-03T11:04:03.702Z,98491.19
2023-02-03T11:09:29.137Z,98472.11
2023-02-03T11:14:39.262Z,98451.36
2023-02-03T11:19:46.780Z,98432.71
2023-02-03T11:24:48.863Z,98406.73
2023-02-03T11:30:15.684Z,98389.39
2023-02-03T11:35:27.052Z,98374.75
2023-02-03T11:40:34.854Z,98357.42
2023-02-03T11:45:54.863Z,98338.98
2023-02-03T11:51:14.758Z,98316.50
2023-02-03T11:56:36.044Z,98306.27
2023-02-03T12:02:07.950Z,98296.54
2023-02-03T12:07:37.365Z,98278.05
2023-02-03T12:13:20.404Z,98254.02
2023-02-03T12:18:46.682Z,98241.28
2023-02-03T12:24:08.693Z,98225.28
2023-02-03T12:29:32.480Z,98200.59
2023-02-03T12:34:41.375Z,98180.80
2023-02-03T12:39:53.004Z,98170.95
2023-02-03T12:45:02.512Z,98161.27
2023-02-03T12:50:21.957Z,98158.39
2023-02-03T12:55:46.501Z,98153.84
2023-02-03T13:01:01.369Z,98134.48
2023-02-03T13:06:15.995Z,98118.80
2023-02-03T13:11:39.023Z,98104.54
2023-02-03T13:16:46.089Z,98089.44
2023-02-03T13:21:49.982Z,98068.29
2023-02-03T13:27:00.762Z,98055.78
2023-02-03T13:32:27.218Z,98047.52
2023-02-03T13:37:48.080Z,98032.96
2023-02-03T13:43:36.884Z,98019.31
2023-02-03T13:48:46.077Z,98015.27
2023-02-03T13:53:50.894Z,97999.50
2023-02-03T13:59:04.024Z,97986.46
2023-02-03T14:04:26.714Z,97980.23
2023-02-03T14:09:46.274Z,97969.63
2023-02-03T14:15:19.404Z,97946.34
2023-02-03T14:20:51.261Z,97925.00
2023-02-03T14:26:09.197Z,97904.98
2023-02-03T14:31:19.563Z,97898.95
2023-02-03T14:36:44.360Z,97888.75
2023-02-03T14:42:19.627Z,97892.92
2023-02-03T14:48:21.203Z,97901.80
2023-02-03T14:53:42.016Z,97897.80
2023-02-03T14:59:04.413Z,97898.92
2023-02-03T15:04:25.327Z,97917.02
2023-02-03T15:09:47.469Z,97928.73
2023-02-03T15:14:50.308Z,97950.52
2023-02-03T15:19:56.185Z,97943.02
2023-02-03T15:25:04.989Z,97929.02
2023-02-03T15:30:28.262Z,97901.64
2023-02-03T15:35:34.132Z,97938.99
2023-02-03T15:40:42.029Z,97943.44
2023-02-03T15:45:52.418Z,97948.63
2023-02-03T15:51:03.017Z,97962.72
2023-02-03T15:56:21.810Z,97965.65
2023-02-03T16:01:35.969Z,97978.31
2023-02-03T16:06:44.090Z,97974.19
2023-02-03T16:12:25.608Z,97980.36
2023-02-03T16:17:37.006Z,97983.18
2023-02-03T16:22:55.248Z,97985.31
2023-02-03T16:28:37.687Z,97984.29
2023-02-03T16:34:08.526Z,97986.70
2023-02-03T16:39:32.255Z,97995.55
2023-02-03T16:44:53.709Z,97985.95
2023-02-03T16:50:39.292Z,97995.73
2023-02-03T16:55:47.119Z,97991.38
2023-02-03T17:00:53.617Z,97997.36
2023-02-03T17:06:04.155Z,98009.78
2023-02-03T17:11:15.999Z,98000.61
2023-02-03T17:16:25.529Z,98009.09
2023-02-03T17:21:47.830Z,98021.06
2023-02-03T17:27:02.504Z,98027.50
2023-02-03T17:32:21.802Z,98038.79
2023-02-03T17:37:27.881Z,98040.95
2023-02-03T17:53:37.259Z,98048.47
2023-02-03T17:58:46.699Z,98057.02
2023-02-03T18:04:10.046Z,98063.66
2023-02-03T18:09:26.048Z,98081.52
2023-02-03T18:14:50.711Z,98078.66
2023-02-03T18:20:00.888Z,98079.86
2023-02-03T18:25:24.726Z,98084.70
2023-02-03T18:30:50.143Z,98096.54
2023-02-03T18:36:23.701Z,98090.55
2023-02-03T18:41:37.007Z,98086.66
2023-02-03T18:47:11.505Z,98090.98
2023-02-03T18:52:19.962Z,98106.80
2023-02-03T18:57:26.523Z,98122.10
2023-02-03T19:02:43.246Z,98131.74
2023-02-03T19:07:49.293Z,98116.29
2023-02-03T19:12:52.420Z,98114.59
2023-02-03T19:17:56.462Z,98123.17
2023-02-03T19:23:09.197Z,98113.42
2023-02-03T19:28:20.136Z,98107.89
2023-02-03T19:33:30.974Z,98111.80
2023-02-03T19:38:33.638Z,98111.48
2023-02-03T19:43:37.545Z,98116.91
2023-02-03T19:48:46.109Z,98114.92
2023-02-03T19:53:59.001Z,98114.87
2023-02-03T19:59:03.457Z,98114.73
2023-02-03T20:04:07.741Z,98119.23
2023-02-03T20:09:12.446Z,98121.99
2023-02-03T20:14:19.673Z,98116.02
2023-02-03T20:19:22.124Z,98119.17
2023-02-03T20:24:37.482Z,98109.08
2023-02-03T20:29:42.054Z,98103.24
2023-02-03T20:34:46.871Z,98102.19
2023-02-03T20:39:51.324Z,98099.09
2023-02-03T20:44:56.258Z,98101.79
2023-02-03T20:49:59.812Z,98099.73
2023-02-03T20:55:16.980Z,98100.44
2023-02-03T21:00:25.488Z,98106.62
2023-02-03T21:05:37.947Z,98104.98
2023-02-03T21:10:48.125Z,98107.77
2023-02-03T21:15:55.008Z,98109.58
2023-02-03T21:20:59.019Z,98108.30
2023-02-03T21:26:01.835Z,98106.48
2023-02-03T21:31:05.668Z,98104.99
2023-02-03T21:36:24.449Z,98100.45
2023-02-03T21:41:32.609Z,98099.80
2023-02-03T21:46:37.391Z,98104.23
2023-02-03T21:51:39.786Z,98097.73
2023-02-03T21:56:43.042Z,98095.13
2023-02-03T22:01:45.686Z,98101.58
2023-02-03T22:06:53.974Z,98101.77
2023-02-03T22:12:03.609Z,98097.38
2023-02-03T22:17:14.279Z,98098.95
2023-02-03T22:22:17.888Z,98093.20
2023-02-03T22:27:25.216Z,98094.23
2023-02-03T22:32:30.499Z,98102.69
2023-02-03T22:37:36.105Z,98103.98
2023-02-03T22:42:39.047Z,98104.94
2023-02-03T22:47:42.789Z,98099.92
2023-02-03T22:52:51.326Z,98103.86
2023-02-03T22:58:02.357Z,98108.27
2023-02-03T23:03:16.776Z,98109.58
2023-02-03T23:08:21.643Z,98105.67
2023-02-03T23:13:49.724Z,98100.74
2023-02-03T23:19:03.635Z,98096.09
2023-02-03T23:24:22.096Z,98095.13
2023-02-03T23:29:33.007Z,98086.79
2023-02-03T23:35:08.509Z,98082.70
2023-02-03T23:40:15.870Z,98077.40
2023-02-03T23:45:37.962Z,98072.64
2023-02-03T23:50:50.069Z,98067.20
2023-02-03T23:55:57.070Z,98060.26
